FFT3570 KPBI-KTTN
Flight info
| Callsign | FFT3570 |
|---|---|
| Flight time | 2h 19m |
| Altitude | 37000 |
| Route | SLIDZ3 LENDS PELCN Y309 FLRDA IDOLS SKARP Q101 KALDA ZJAAY JIIMS4 |
| Aircraft | A320/M-SDE3FGHIRWY/LB1 |
Departure
| Time | 2026-05-04 17:28 |
|---|---|
| Airport | Palm Beach International Airport (KPBI) |
Arrival
| Time | 2026-05-04 19:47 |
|---|---|
| Airport | Trenton Mercer Airport (KTTN) |
| Time | Latitude | Longitude | Altitude | Speed | Heading |
|---|---|---|---|---|---|
| 2026-05-04 16:48 | 26.68517 | -80.09020 | 23 ft | 0 kts | 62° |
| 2026-05-04 17:15 | 26.68506 | -80.09058 | 23 ft | 4 kts | 89° |
| 2026-05-04 17:16 | 26.68527 | -80.09095 | 23 ft | 1 kts | 181° |
| 2026-05-04 17:16 | 26.68531 | -80.09095 | 23 ft | 0 kts | 181° |
| 2026-05-04 17:20 | 26.68528 | -80.09095 | 23 ft | 4 kts | 181° |
| 2026-05-04 17:20 | 26.68486 | -80.09097 | 23 ft | 6 kts | 182° |
| 2026-05-04 17:21 | 26.68426 | -80.09132 | 22 ft | 6 kts | 226° |
| 2026-05-04 17:21 | 26.68368 | -80.09168 | 23 ft | 4 kts | 233° |
| 2026-05-04 17:22 | 26.68362 | -80.09202 | 23 ft | 4 kts | 268° |
| 2026-05-04 17:22 | 26.68364 | -80.09255 | 22 ft | 16 kts | 272° |
| 2026-05-04 17:23 | 26.68376 | -80.09568 | 28 ft | 8 kts | 272° |
| 2026-05-04 17:23 | 26.68381 | -80.09665 | 29 ft | 22 kts | 273° |
| 2026-05-04 17:23 | 26.68396 | -80.09992 | 30 ft | 19 kts | 273° |
| 2026-05-04 17:24 | 26.68401 | -80.10130 | 30 ft | 17 kts | 272° |
| 2026-05-04 17:24 | 26.68419 | -80.10529 | 23 ft | 17 kts | 273° |
| 2026-05-04 17:25 | 26.68424 | -80.10655 | 21 ft | 16 kts | 272° |
| 2026-05-04 17:25 | 26.68409 | -80.10720 | 21 ft | 0 kts | 229° |
| 2026-05-04 17:26 | 26.68404 | -80.10727 | 23 ft | 2 kts | 226° |
| 2026-05-04 17:26 | 26.68323 | -80.10720 | 21 ft | 6 kts | 127° |
| 2026-05-04 17:27 | 26.68310 | -80.10588 | 23 ft | 33 kts | 92° |
| 2026-05-04 17:27 | 26.68262 | -80.09434 | 24 ft | 136 kts | 94° |
| 2026-05-04 17:28 | 26.68139 | -80.06985 | 1001 ft | 160 kts | 87° |
| 2026-05-04 17:29 | 26.69044 | -80.03317 | 2355 ft | 193 kts | 59° |
| 2026-05-04 17:29 | 26.71282 | -79.98601 | 3572 ft | 256 kts | 61° |
| 2026-05-04 17:30 | 26.74733 | -79.93742 | 5802 ft | 279 kts | 47° |
| 2026-05-04 17:31 | 26.77341 | -79.90365 | 7232 ft | 294 kts | 47° |
| 2026-05-04 17:31 | 26.81443 | -79.85050 | 9537 ft | 308 kts | 47° |
| 2026-05-04 17:32 | 26.84334 | -79.81302 | 10502 ft | 337 kts | 47° |
| 2026-05-04 17:33 | 26.89219 | -79.74956 | 12004 ft | 369 kts | 47° |
| 2026-05-04 17:33 | 26.90904 | -79.72761 | 12682 ft | 374 kts | 47° |
| 2026-05-04 17:34 | 26.96492 | -79.66501 | 14520 ft | 385 kts | 40° |
| 2026-05-04 17:34 | 26.98430 | -79.64465 | 15072 ft | 389 kts | 40° |
| 2026-05-04 17:35 | 27.04450 | -79.58119 | 16698 ft | 403 kts | 40° |
| 2026-05-04 17:35 | 27.08573 | -79.53763 | 17751 ft | 411 kts | 40° |
| 2026-05-04 17:35 | 27.10667 | -79.51547 | 18266 ft | 416 kts | 40° |
| 2026-05-04 17:36 | 27.12787 | -79.49303 | 18717 ft | 420 kts | 39° |
| 2026-05-04 17:36 | 27.14921 | -79.47048 | 19173 ft | 423 kts | 39° |
| 2026-05-04 17:36 | 27.17075 | -79.44769 | 19637 ft | 427 kts | 40° |
| 2026-05-04 17:36 | 27.19239 | -79.42475 | 20099 ft | 430 kts | 40° |
| 2026-05-04 17:37 | 27.21418 | -79.40161 | 20565 ft | 433 kts | 40° |
| 2026-05-04 17:37 | 27.23615 | -79.37827 | 21017 ft | 436 kts | 40° |
| 2026-05-04 17:37 | 27.25827 | -79.35480 | 21456 ft | 439 kts | 40° |
| 2026-05-04 17:37 | 27.28059 | -79.33114 | 21893 ft | 442 kts | 39° |
| 2026-05-04 17:38 | 27.30307 | -79.30732 | 22330 ft | 445 kts | 39° |
| 2026-05-04 17:38 | 27.32570 | -79.28330 | 22768 ft | 449 kts | 39° |
| 2026-05-04 17:38 | 27.34847 | -79.25908 | 23199 ft | 452 kts | 40° |
| 2026-05-04 17:38 | 27.37106 | -79.23498 | 23604 ft | 455 kts | 40° |
| 2026-05-04 17:39 | 27.41729 | -79.18559 | 24303 ft | 461 kts | 39° |
| 2026-05-04 17:39 | 27.44065 | -79.16066 | 24658 ft | 463 kts | 39° |
| 2026-05-04 17:39 | 27.46411 | -79.13564 | 25007 ft | 466 kts | 39° |
| 2026-05-04 17:40 | 27.48772 | -79.11048 | 25352 ft | 468 kts | 39° |
| 2026-05-04 17:40 | 27.51143 | -79.08521 | 25694 ft | 471 kts | 39° |
| 2026-05-04 17:40 | 27.53528 | -79.05975 | 26031 ft | 474 kts | 39° |
| 2026-05-04 17:40 | 27.55926 | -79.03413 | 26355 ft | 476 kts | 39° |
| 2026-05-04 17:41 | 27.58331 | -79.00835 | 26694 ft | 479 kts | 39° |
| 2026-05-04 17:41 | 27.60750 | -78.98237 | 27021 ft | 481 kts | 38° |
| 2026-05-04 17:41 | 27.63198 | -78.95658 | 27340 ft | 482 kts | 34° |
| 2026-05-04 17:41 | 27.65897 | -78.93438 | 27654 ft | 476 kts | 24° |
| 2026-05-04 17:42 | 27.68826 | -78.91754 | 27976 ft | 470 kts | 14° |
| 2026-05-04 17:42 | 27.71914 | -78.90616 | 28302 ft | 462 kts | 5° |
| 2026-05-04 17:42 | 27.75018 | -78.90018 | 28619 ft | 457 kts | 359° |
| 2026-05-04 17:42 | 27.78179 | -78.89582 | 28940 ft | 459 kts | 359° |
| 2026-05-04 17:43 | 27.81358 | -78.89138 | 29265 ft | 461 kts | 358° |
| 2026-05-04 17:43 | 27.84555 | -78.88691 | 29585 ft | 463 kts | 358° |
| 2026-05-04 17:43 | 27.87755 | -78.88243 | 29883 ft | 465 kts | 358° |
| 2026-05-04 17:43 | 27.90973 | -78.87794 | 30173 ft | 467 kts | 358° |
| 2026-05-04 17:44 | 27.94198 | -78.87342 | 30424 ft | 468 kts | 358° |
| 2026-05-04 17:44 | 27.97441 | -78.86882 | 30668 ft | 470 kts | 358° |
| 2026-05-04 17:44 | 28.00695 | -78.86421 | 30904 ft | 472 kts | 358° |
| 2026-05-04 17:44 | 28.03971 | -78.85958 | 31132 ft | 474 kts | 358° |
| 2026-05-04 17:45 | 28.07240 | -78.85497 | 31458 ft | 473 kts | 358° |
| 2026-05-04 17:45 | 28.10465 | -78.85041 | 31789 ft | 473 kts | 358° |
| 2026-05-04 17:45 | 28.13769 | -78.84573 | 32121 ft | 472 kts | 358° |
| 2026-05-04 17:45 | 28.16983 | -78.84119 | 32445 ft | 471 kts | 358° |
| 2026-05-04 17:46 | 28.20279 | -78.83652 | 32777 ft | 471 kts | 358° |
| 2026-05-04 17:46 | 28.23488 | -78.83198 | 33106 ft | 470 kts | 358° |
| 2026-05-04 17:46 | 28.26732 | -78.82737 | 33428 ft | 470 kts | 358° |
| 2026-05-04 17:46 | 28.29978 | -78.82277 | 33750 ft | 469 kts | 358° |
| 2026-05-04 17:47 | 28.33214 | -78.81822 | 34079 ft | 468 kts | 358° |
| 2026-05-04 17:47 | 28.36447 | -78.81367 | 34365 ft | 468 kts | 358° |
| 2026-05-04 17:47 | 28.39678 | -78.80908 | 34628 ft | 468 kts | 358° |
| 2026-05-04 17:47 | 28.42910 | -78.80447 | 34885 ft | 467 kts | 358° |
| 2026-05-04 17:48 | 28.46141 | -78.79983 | 35144 ft | 467 kts | 358° |
| 2026-05-04 17:48 | 28.49365 | -78.79519 | 35387 ft | 467 kts | 358° |
| 2026-05-04 17:48 | 28.52590 | -78.79060 | 35616 ft | 467 kts | 358° |
| 2026-05-04 17:48 | 28.55818 | -78.78602 | 35845 ft | 466 kts | 358° |
| 2026-05-04 17:49 | 28.59031 | -78.78146 | 36087 ft | 466 kts | 358° |
| 2026-05-04 17:49 | 28.62250 | -78.77688 | 36299 ft | 466 kts | 358° |
| 2026-05-04 17:49 | 28.65466 | -78.77232 | 36518 ft | 465 kts | 358° |
| 2026-05-04 17:49 | 28.68683 | -78.76777 | 36724 ft | 465 kts | 358° |
| 2026-05-04 17:50 | 28.71904 | -78.76319 | 36937 ft | 465 kts | 358° |
| 2026-05-04 17:50 | 28.75075 | -78.75866 | 37089 ft | 466 kts | 358° |
| 2026-05-04 17:50 | 28.81492 | -78.74945 | 37126 ft | 464 kts | 358° |
| 2026-05-04 17:51 | 28.87898 | -78.74031 | 37124 ft | 463 kts | 358° |
| 2026-05-04 17:51 | 28.94292 | -78.73112 | 37127 ft | 463 kts | 358° |
| 2026-05-04 17:52 | 29.00675 | -78.72190 | 37124 ft | 462 kts | 358° |
| 2026-05-04 17:52 | 29.07050 | -78.71279 | 37139 ft | 461 kts | 358° |
| 2026-05-04 17:53 | 29.13385 | -78.70372 | 37150 ft | 461 kts | 358° |
| 2026-05-04 17:53 | 29.19755 | -78.69451 | 37162 ft | 461 kts | 358° |
| 2026-05-04 17:54 | 29.26125 | -78.68526 | 37161 ft | 460 kts | 358° |
| 2026-05-04 17:54 | 29.32482 | -78.67600 | 37167 ft | 460 kts | 358° |
| 2026-05-04 17:55 | 29.38824 | -78.66221 | 37165 ft | 472 kts | 8° |
| 2026-05-04 17:55 | 29.45096 | -78.63968 | 37168 ft | 472 kts | 9° |
| 2026-05-04 17:56 | 29.51320 | -78.61705 | 37167 ft | 472 kts | 9° |
| 2026-05-04 17:56 | 29.57573 | -78.59438 | 37172 ft | 471 kts | 8° |
| 2026-05-04 17:57 | 29.63821 | -78.57186 | 37175 ft | 470 kts | 8° |
| 2026-05-04 17:57 | 29.70105 | -78.54916 | 37176 ft | 470 kts | 8° |
| 2026-05-04 17:58 | 29.76291 | -78.52662 | 37175 ft | 469 kts | 8° |
| 2026-05-04 17:58 | 29.82512 | -78.50393 | 37175 ft | 468 kts | 8° |
| 2026-05-04 17:59 | 29.88730 | -78.48139 | 37174 ft | 468 kts | 8° |
| 2026-05-04 18:00 | 29.98034 | -78.44749 | 37175 ft | 467 kts | 8° |
| 2026-05-04 18:00 | 30.04229 | -78.42495 | 37172 ft | 466 kts | 8° |
| 2026-05-04 18:01 | 30.10418 | -78.40235 | 37178 ft | 466 kts | 8° |
| 2026-05-04 18:01 | 30.16629 | -78.38620 | 37176 ft | 450 kts | 357° |
| 2026-05-04 18:02 | 30.25953 | -78.37240 | 37177 ft | 450 kts | 357° |
| 2026-05-04 18:02 | 30.32173 | -78.36305 | 37176 ft | 450 kts | 357° |
| 2026-05-04 18:03 | 30.38385 | -78.35373 | 37177 ft | 450 kts | 357° |
| 2026-05-04 18:03 | 30.44601 | -78.34354 | 37172 ft | 453 kts | 359° |
| 2026-05-04 18:04 | 30.50779 | -78.32932 | 37181 ft | 457 kts | 2° |
| 2026-05-04 18:05 | 30.60099 | -78.30589 | 37185 ft | 456 kts | 1° |
| 2026-05-04 18:05 | 30.66318 | -78.29118 | 37186 ft | 455 kts | 1° |
| 2026-05-04 18:06 | 30.75621 | -78.26971 | 37185 ft | 455 kts | 1° |
| 2026-05-04 18:06 | 30.81786 | -78.25524 | 37184 ft | 455 kts | 1° |
| 2026-05-04 18:07 | 30.88002 | -78.24063 | 37183 ft | 455 kts | 1° |
| 2026-05-04 18:07 | 30.94204 | -78.22608 | 37183 ft | 455 kts | 1° |
| 2026-05-04 18:08 | 31.00416 | -78.21203 | 37182 ft | 454 kts | 0° |
| 2026-05-04 18:08 | 31.06590 | -78.19852 | 37181 ft | 454 kts | 0° |
| 2026-05-04 18:09 | 31.19001 | -78.17112 | 37183 ft | 454 kts | 1° |
| 2026-05-04 18:10 | 31.25209 | -78.15721 | 37183 ft | 454 kts | 1° |
| 2026-05-04 18:10 | 31.31416 | -78.14324 | 37188 ft | 454 kts | 1° |
| 2026-05-04 18:11 | 31.37638 | -78.12931 | 37186 ft | 454 kts | 1° |
| 2026-05-04 18:11 | 31.43816 | -78.11552 | 37188 ft | 454 kts | 1° |
| 2026-05-04 18:12 | 31.50026 | -78.10087 | 37189 ft | 456 kts | 2° |
| 2026-05-04 18:12 | 31.56237 | -78.08555 | 37188 ft | 456 kts | 2° |
| 2026-05-04 18:13 | 31.61406 | -78.07281 | 37185 ft | 456 kts | 2° |
| 2026-05-04 18:14 | 31.70741 | -78.05014 | 37183 ft | 456 kts | 2° |
| 2026-05-04 18:14 | 31.76958 | -78.03511 | 37181 ft | 456 kts | 2° |
| 2026-05-04 18:15 | 31.89411 | -78.00494 | 37181 ft | 457 kts | 2° |
| 2026-05-04 18:16 | 31.95597 | -77.98987 | 37180 ft | 457 kts | 2° |
| 2026-05-04 18:16 | 32.01830 | -77.97469 | 37185 ft | 457 kts | 3° |
| 2026-05-04 18:17 | 32.11176 | -77.95180 | 37182 ft | 457 kts | 3° |
| 2026-05-04 18:18 | 32.20529 | -77.92888 | 37188 ft | 457 kts | 3° |
| 2026-05-04 18:18 | 32.26757 | -77.91365 | 37185 ft | 457 kts | 3° |
| 2026-05-04 18:19 | 32.36114 | -77.89063 | 37183 ft | 457 kts | 3° |
| 2026-05-04 18:19 | 32.42300 | -77.87535 | 37179 ft | 458 kts | 4° |
| 2026-05-04 18:20 | 32.48544 | -77.86000 | 37176 ft | 458 kts | 4° |
| 2026-05-04 18:20 | 32.54782 | -77.84463 | 37176 ft | 458 kts | 4° |
| 2026-05-04 18:21 | 32.61017 | -77.82923 | 37181 ft | 458 kts | 4° |
| 2026-05-04 18:21 | 32.67259 | -77.81373 | 37174 ft | 458 kts | 4° |
| 2026-05-04 18:22 | 32.73501 | -77.79817 | 37177 ft | 458 kts | 4° |
| 2026-05-04 18:22 | 32.79689 | -77.78287 | 37171 ft | 458 kts | 4° |
| 2026-05-04 18:23 | 32.85938 | -77.76743 | 37171 ft | 458 kts | 4° |
| 2026-05-04 18:23 | 32.92176 | -77.75185 | 37171 ft | 458 kts | 4° |
| 2026-05-04 18:24 | 32.98411 | -77.73620 | 37170 ft | 458 kts | 4° |
| 2026-05-04 18:24 | 33.04654 | -77.72061 | 37172 ft | 458 kts | 4° |
| 2026-05-04 18:25 | 33.10897 | -77.70505 | 37172 ft | 458 kts | 4° |
| 2026-05-04 18:25 | 33.17136 | -77.68941 | 37165 ft | 458 kts | 4° |
| 2026-05-04 18:26 | 33.23344 | -77.67384 | 37161 ft | 458 kts | 4° |
| 2026-05-04 18:26 | 33.29596 | -77.65811 | 37163 ft | 458 kts | 4° |
| 2026-05-04 18:27 | 33.35841 | -77.64235 | 37162 ft | 458 kts | 4° |
| 2026-05-04 18:27 | 33.42093 | -77.62659 | 37163 ft | 459 kts | 4° |
| 2026-05-04 18:28 | 33.48342 | -77.61085 | 37165 ft | 459 kts | 4° |
| 2026-05-04 18:28 | 33.54550 | -77.59518 | 37168 ft | 459 kts | 4° |
| 2026-05-04 18:29 | 33.60794 | -77.57989 | 37170 ft | 457 kts | 3° |
| 2026-05-04 18:29 | 33.67056 | -77.56768 | 37165 ft | 455 kts | 1° |
| 2026-05-04 18:30 | 33.76452 | -77.55107 | 37164 ft | 455 kts | 1° |
| 2026-05-04 18:31 | 33.82713 | -77.53903 | 37158 ft | 456 kts | 2° |
| 2026-05-04 18:31 | 33.88979 | -77.52671 | 37156 ft | 456 kts | 1° |
| 2026-05-04 18:32 | 33.95240 | -77.51451 | 37155 ft | 456 kts | 1° |
| 2026-05-04 18:32 | 34.01505 | -77.50232 | 37155 ft | 456 kts | 1° |
| 2026-05-04 18:33 | 34.07765 | -77.49021 | 37153 ft | 455 kts | 1° |
| 2026-05-04 18:33 | 34.13985 | -77.47813 | 37141 ft | 455 kts | 1° |
| 2026-05-04 18:34 | 34.20247 | -77.46593 | 37147 ft | 455 kts | 1° |
| 2026-05-04 18:34 | 34.26507 | -77.45375 | 37140 ft | 455 kts | 1° |
| 2026-05-04 18:35 | 34.32761 | -77.44148 | 37152 ft | 455 kts | 1° |
| 2026-05-04 18:35 | 34.39012 | -77.42920 | 37151 ft | 455 kts | 1° |
| 2026-05-04 18:36 | 34.45260 | -77.41700 | 37148 ft | 454 kts | 1° |
| 2026-05-04 18:36 | 34.51373 | -77.39369 | 37144 ft | 471 kts | 20° |
| 2026-05-04 18:37 | 34.57216 | -77.35736 | 37140 ft | 472 kts | 20° |
| 2026-05-04 18:37 | 34.63069 | -77.32124 | 37136 ft | 472 kts | 20° |
| 2026-05-04 18:38 | 34.68921 | -77.28523 | 37134 ft | 472 kts | 20° |
| 2026-05-04 18:38 | 34.74738 | -77.24927 | 37132 ft | 472 kts | 20° |
| 2026-05-04 18:39 | 34.80596 | -77.21294 | 37147 ft | 472 kts | 20° |
| 2026-05-04 18:39 | 34.86444 | -77.17659 | 37148 ft | 472 kts | 20° |
| 2026-05-04 18:40 | 34.92307 | -77.14010 | 37132 ft | 472 kts | 20° |
| 2026-05-04 18:40 | 34.98115 | -77.10386 | 37125 ft | 472 kts | 20° |
| 2026-05-04 18:41 | 35.03966 | -77.06734 | 37126 ft | 472 kts | 20° |
| 2026-05-04 18:41 | 35.09807 | -77.03080 | 37130 ft | 472 kts | 20° |
| 2026-05-04 18:42 | 35.15654 | -76.99422 | 37126 ft | 472 kts | 20° |
| 2026-05-04 18:42 | 35.21500 | -76.95753 | 37125 ft | 472 kts | 20° |
| 2026-05-04 18:43 | 35.27341 | -76.92105 | 37120 ft | 471 kts | 19° |
| 2026-05-04 18:43 | 35.33221 | -76.88540 | 37113 ft | 471 kts | 19° |
| 2026-05-04 18:44 | 35.39095 | -76.84995 | 37111 ft | 471 kts | 19° |
| 2026-05-04 18:44 | 35.44967 | -76.81424 | 37111 ft | 471 kts | 19° |
| 2026-05-04 18:45 | 35.50831 | -76.77827 | 37107 ft | 471 kts | 19° |
| 2026-05-04 18:45 | 35.56703 | -76.74222 | 37107 ft | 471 kts | 19° |
| 2026-05-04 18:46 | 35.62531 | -76.70648 | 37104 ft | 471 kts | 19° |
| 2026-05-04 18:46 | 35.68400 | -76.67049 | 37098 ft | 471 kts | 19° |
| 2026-05-04 18:47 | 35.74272 | -76.63443 | 37095 ft | 472 kts | 19° |
| 2026-05-04 18:47 | 35.80142 | -76.59823 | 37099 ft | 472 kts | 19° |
| 2026-05-04 18:48 | 35.86017 | -76.56186 | 37098 ft | 472 kts | 19° |
| 2026-05-04 18:48 | 35.91875 | -76.52523 | 37102 ft | 473 kts | 20° |
| 2026-05-04 18:49 | 35.97642 | -76.48668 | 37106 ft | 474 kts | 21° |
| 2026-05-04 18:49 | 36.03422 | -76.44686 | 37115 ft | 474 kts | 21° |
| 2026-05-04 18:50 | 36.09200 | -76.40729 | 37102 ft | 474 kts | 21° |
| 2026-05-04 18:50 | 36.14951 | -76.36847 | 37090 ft | 474 kts | 21° |
| 2026-05-04 18:51 | 36.20740 | -76.32941 | 37087 ft | 473 kts | 21° |
| 2026-05-04 18:51 | 36.26525 | -76.29025 | 37089 ft | 473 kts | 21° |
| 2026-05-04 18:52 | 36.32294 | -76.25092 | 37094 ft | 473 kts | 21° |
| 2026-05-04 18:52 | 36.38066 | -76.21144 | 37096 ft | 473 kts | 21° |
| 2026-05-04 18:53 | 36.43831 | -76.17214 | 37088 ft | 472 kts | 21° |
| 2026-05-04 18:53 | 36.49594 | -76.13289 | 37090 ft | 472 kts | 21° |
| 2026-05-04 18:54 | 36.55341 | -76.09352 | 37087 ft | 472 kts | 21° |
| 2026-05-04 18:54 | 36.61089 | -76.05407 | 37079 ft | 471 kts | 21° |
| 2026-05-04 18:55 | 36.66827 | -76.01469 | 37068 ft | 471 kts | 21° |
| 2026-05-04 18:55 | 36.75439 | -75.95540 | 37066 ft | 471 kts | 21° |
| 2026-05-04 18:56 | 36.81170 | -75.91587 | 37071 ft | 471 kts | 21° |
| 2026-05-04 18:56 | 36.86866 | -75.87645 | 37068 ft | 471 kts | 21° |
| 2026-05-04 18:57 | 36.92593 | -75.83672 | 37062 ft | 470 kts | 22° |
| 2026-05-04 18:57 | 36.98314 | -75.79706 | 37058 ft | 470 kts | 22° |
| 2026-05-04 18:58 | 37.04041 | -75.75774 | 37038 ft | 460 kts | 17° |
| 2026-05-04 18:58 | 37.06945 | -75.74385 | 36947 ft | 436 kts | 7° |
| 2026-05-04 18:58 | 37.09849 | -75.73625 | 36826 ft | 418 kts | 1° |
| 2026-05-04 18:59 | 37.12683 | -75.73021 | 36559 ft | 410 kts | 1° |
| 2026-05-04 18:59 | 37.15475 | -75.72428 | 36197 ft | 405 kts | 1° |
| 2026-05-04 18:59 | 37.18242 | -75.71840 | 35826 ft | 401 kts | 1° |
| 2026-05-04 18:59 | 37.20982 | -75.71257 | 35412 ft | 398 kts | 1° |
| 2026-05-04 19:00 | 37.23708 | -75.70675 | 34958 ft | 397 kts | 1° |
| 2026-05-04 19:00 | 37.26428 | -75.70096 | 34500 ft | 395 kts | 2° |
| 2026-05-04 19:00 | 37.29135 | -75.69519 | 34034 ft | 394 kts | 2° |
| 2026-05-04 19:00 | 37.31808 | -75.68951 | 33360 ft | 396 kts | 2° |
| 2026-05-04 19:01 | 37.34572 | -75.68372 | 32228 ft | 410 kts | 2° |
| 2026-05-04 19:01 | 37.37421 | -75.67776 | 31299 ft | 418 kts | 2° |
| 2026-05-04 19:01 | 37.40280 | -75.67162 | 30744 ft | 416 kts | 2° |
| 2026-05-04 19:01 | 37.43116 | -75.66543 | 30270 ft | 411 kts | 2° |
| 2026-05-04 19:02 | 37.45914 | -75.65927 | 29763 ft | 407 kts | 2° |
| 2026-05-04 19:02 | 37.48691 | -75.65316 | 29207 ft | 402 kts | 3° |
| 2026-05-04 19:02 | 37.50511 | -75.64919 | 28892 ft | 399 kts | 3° |
| 2026-05-04 19:02 | 37.53202 | -75.64331 | 28703 ft | 386 kts | 3° |
| 2026-05-04 19:03 | 37.55800 | -75.63762 | 28605 ft | 372 kts | 2° |
| 2026-05-04 19:03 | 37.58304 | -75.63214 | 28515 ft | 358 kts | 2° |
| 2026-05-04 19:03 | 37.60723 | -75.62685 | 28422 ft | 345 kts | 2° |
| 2026-05-04 19:03 | 37.63052 | -75.62180 | 28346 ft | 337 kts | 2° |
| 2026-05-04 19:04 | 37.67702 | -75.61242 | 28194 ft | 336 kts | 358° |
| 2026-05-04 19:04 | 37.72297 | -75.61414 | 28030 ft | 328 kts | 348° |
| 2026-05-04 19:05 | 37.74573 | -75.61659 | 27950 ft | 328 kts | 349° |
| 2026-05-04 19:05 | 37.76843 | -75.61898 | 27874 ft | 328 kts | 349° |
| 2026-05-04 19:05 | 37.79114 | -75.62135 | 27799 ft | 327 kts | 349° |
| 2026-05-04 19:05 | 37.81403 | -75.62168 | 27710 ft | 332 kts | 358° |
| 2026-05-04 19:06 | 37.83711 | -75.61709 | 27636 ft | 339 kts | 7° |
| 2026-05-04 19:06 | 37.85965 | -75.60742 | 27559 ft | 345 kts | 17° |
| 2026-05-04 19:06 | 37.88093 | -75.59280 | 27480 ft | 352 kts | 27° |
| 2026-05-04 19:06 | 37.90086 | -75.57537 | 27404 ft | 352 kts | 28° |
| 2026-05-04 19:07 | 37.92102 | -75.55773 | 27323 ft | 352 kts | 28° |
| 2026-05-04 19:07 | 37.94118 | -75.54016 | 27243 ft | 351 kts | 28° |
| 2026-05-04 19:07 | 37.96133 | -75.52265 | 27161 ft | 350 kts | 28° |
| 2026-05-04 19:07 | 37.98143 | -75.50523 | 27095 ft | 350 kts | 28° |
| 2026-05-04 19:08 | 38.00150 | -75.48782 | 27005 ft | 349 kts | 28° |
| 2026-05-04 19:08 | 38.02151 | -75.47036 | 26888 ft | 349 kts | 28° |
| 2026-05-04 19:08 | 38.04142 | -75.45290 | 26548 ft | 347 kts | 28° |
| 2026-05-04 19:08 | 38.06199 | -75.43746 | 26161 ft | 339 kts | 18° |
| 2026-05-04 19:09 | 38.08329 | -75.42505 | 25782 ft | 336 kts | 18° |
| 2026-05-04 19:09 | 38.10446 | -75.41272 | 25390 ft | 334 kts | 18° |
| 2026-05-04 19:09 | 38.12553 | -75.40044 | 24998 ft | 332 kts | 18° |
| 2026-05-04 19:09 | 38.14651 | -75.38819 | 24589 ft | 331 kts | 18° |
| 2026-05-04 19:10 | 38.16738 | -75.37599 | 24171 ft | 329 kts | 18° |
| 2026-05-04 19:10 | 38.18813 | -75.36381 | 23774 ft | 328 kts | 18° |
| 2026-05-04 19:10 | 38.20889 | -75.35161 | 23332 ft | 327 kts | 18° |
| 2026-05-04 19:10 | 38.22952 | -75.33948 | 22916 ft | 325 kts | 19° |
| 2026-05-04 19:11 | 38.24993 | -75.32747 | 22526 ft | 323 kts | 19° |
| 2026-05-04 19:11 | 38.27027 | -75.31551 | 22140 ft | 321 kts | 19° |
| 2026-05-04 19:11 | 38.29045 | -75.30364 | 21758 ft | 319 kts | 19° |
| 2026-05-04 19:11 | 38.31060 | -75.29182 | 21378 ft | 318 kts | 19° |
| 2026-05-04 19:12 | 38.33063 | -75.28008 | 20997 ft | 317 kts | 19° |
| 2026-05-04 19:12 | 38.37030 | -75.25668 | 20249 ft | 315 kts | 19° |
| 2026-05-04 19:12 | 38.39019 | -75.24496 | 19871 ft | 315 kts | 19° |
| 2026-05-04 19:13 | 38.41011 | -75.23320 | 19503 ft | 315 kts | 19° |
| 2026-05-04 19:13 | 38.43000 | -75.22142 | 19125 ft | 315 kts | 19° |
| 2026-05-04 19:13 | 38.44991 | -75.20964 | 18760 ft | 315 kts | 20° |
| 2026-05-04 19:13 | 38.46973 | -75.19792 | 18452 ft | 314 kts | 20° |
| 2026-05-04 19:14 | 38.48955 | -75.18623 | 18072 ft | 314 kts | 20° |
| 2026-05-04 19:14 | 38.50935 | -75.17454 | 17703 ft | 313 kts | 20° |
| 2026-05-04 19:14 | 38.52908 | -75.16286 | 17326 ft | 312 kts | 20° |
| 2026-05-04 19:14 | 38.54880 | -75.15113 | 16930 ft | 312 kts | 20° |
| 2026-05-04 19:15 | 38.56852 | -75.13945 | 16563 ft | 312 kts | 20° |
| 2026-05-04 19:15 | 38.58822 | -75.12763 | 16187 ft | 313 kts | 21° |
| 2026-05-04 19:15 | 38.60786 | -75.11526 | 15814 ft | 314 kts | 21° |
| 2026-05-04 19:15 | 38.62743 | -75.10262 | 15439 ft | 315 kts | 21° |
| 2026-05-04 19:16 | 38.64700 | -75.08992 | 15066 ft | 316 kts | 21° |
| 2026-05-04 19:16 | 38.66668 | -75.07715 | 14868 ft | 318 kts | 21° |
| 2026-05-04 19:16 | 38.68626 | -75.06454 | 14720 ft | 320 kts | 21° |
| 2026-05-04 19:16 | 38.70618 | -75.05173 | 14553 ft | 320 kts | 21° |
| 2026-05-04 19:17 | 38.72611 | -75.03893 | 14391 ft | 320 kts | 21° |
| 2026-05-04 19:17 | 38.74600 | -75.02612 | 14214 ft | 319 kts | 21° |
| 2026-05-04 19:17 | 38.76582 | -75.01335 | 14058 ft | 319 kts | 21° |
| 2026-05-04 19:17 | 38.78562 | -75.00060 | 13887 ft | 319 kts | 21° |
| 2026-05-04 19:18 | 38.80544 | -74.98789 | 13717 ft | 318 kts | 21° |
| 2026-05-04 19:18 | 38.82524 | -74.97520 | 13542 ft | 317 kts | 21° |
| 2026-05-04 19:18 | 38.84498 | -74.96255 | 13387 ft | 316 kts | 21° |
| 2026-05-04 19:18 | 38.86465 | -74.94991 | 13210 ft | 315 kts | 21° |
| 2026-05-04 19:19 | 38.88424 | -74.93723 | 13045 ft | 315 kts | 21° |
| 2026-05-04 19:19 | 38.90374 | -74.92459 | 12872 ft | 314 kts | 21° |
| 2026-05-04 19:19 | 38.92318 | -74.91202 | 12719 ft | 313 kts | 21° |
| 2026-05-04 19:19 | 38.94264 | -74.89944 | 12551 ft | 312 kts | 21° |
| 2026-05-04 19:20 | 38.96196 | -74.88698 | 12391 ft | 311 kts | 21° |
| 2026-05-04 19:20 | 38.98131 | -74.87447 | 12223 ft | 310 kts | 22° |
| 2026-05-04 19:20 | 39.00055 | -74.86200 | 12063 ft | 309 kts | 21° |
| 2026-05-04 19:20 | 39.01970 | -74.84960 | 11899 ft | 308 kts | 22° |
| 2026-05-04 19:21 | 39.03883 | -74.83719 | 11740 ft | 307 kts | 22° |
| 2026-05-04 19:21 | 39.05793 | -74.82479 | 11579 ft | 306 kts | 22° |
| 2026-05-04 19:21 | 39.07712 | -74.81311 | 11414 ft | 302 kts | 14° |
| 2026-05-04 19:21 | 39.09728 | -74.80745 | 11261 ft | 294 kts | 359° |
| 2026-05-04 19:22 | 39.11742 | -74.80892 | 11106 ft | 286 kts | 343° |
| 2026-05-04 19:22 | 39.13618 | -74.81565 | 10965 ft | 284 kts | 339° |
| 2026-05-04 19:22 | 39.15508 | -74.82284 | 10809 ft | 283 kts | 339° |
| 2026-05-04 19:22 | 39.17403 | -74.82999 | 10660 ft | 283 kts | 339° |
| 2026-05-04 19:23 | 39.19288 | -74.83705 | 10510 ft | 282 kts | 339° |
| 2026-05-04 19:23 | 39.21168 | -74.84408 | 10364 ft | 281 kts | 339° |
| 2026-05-04 19:23 | 39.23042 | -74.85109 | 10202 ft | 281 kts | 339° |
| 2026-05-04 19:23 | 39.24916 | -74.85811 | 10045 ft | 279 kts | 339° |
| 2026-05-04 19:24 | 39.26773 | -74.86509 | 9900 ft | 277 kts | 339° |
| 2026-05-04 19:24 | 39.28624 | -74.87206 | 9732 ft | 277 kts | 339° |
| 2026-05-04 19:24 | 39.30474 | -74.87903 | 9594 ft | 276 kts | 340° |
| 2026-05-04 19:24 | 39.32319 | -74.88598 | 9445 ft | 276 kts | 339° |
| 2026-05-04 19:25 | 39.34157 | -74.89293 | 9301 ft | 275 kts | 339° |
| 2026-05-04 19:25 | 39.35996 | -74.89989 | 9156 ft | 275 kts | 339° |
| 2026-05-04 19:25 | 39.37833 | -74.90683 | 9007 ft | 274 kts | 339° |
| 2026-05-04 19:25 | 39.39645 | -74.91369 | 8905 ft | 274 kts | 339° |
| 2026-05-04 19:26 | 39.41473 | -74.92058 | 8822 ft | 274 kts | 339° |
| 2026-05-04 19:26 | 39.43302 | -74.92747 | 8712 ft | 274 kts | 340° |
| 2026-05-04 19:26 | 39.45128 | -74.93434 | 8613 ft | 273 kts | 339° |
| 2026-05-04 19:26 | 39.46364 | -74.93901 | 8552 ft | 273 kts | 339° |
| 2026-05-04 19:27 | 39.46557 | -74.93974 | 8529 ft | 273 kts | 339° |
| 2026-05-04 19:27 | 39.48432 | -74.94686 | 8443 ft | 273 kts | 339° |
| 2026-05-04 19:27 | 39.50257 | -74.95376 | 8333 ft | 273 kts | 339° |
| 2026-05-04 19:27 | 39.52078 | -74.96063 | 8230 ft | 272 kts | 339° |
| 2026-05-04 19:28 | 39.53847 | -74.96896 | 8126 ft | 268 kts | 328° |
| 2026-05-04 19:28 | 39.55395 | -74.98204 | 8040 ft | 266 kts | 320° |
| 2026-05-04 19:28 | 39.56876 | -74.99587 | 7929 ft | 265 kts | 321° |
| 2026-05-04 19:28 | 39.58377 | -75.00984 | 7826 ft | 265 kts | 321° |
| 2026-05-04 19:29 | 39.59876 | -75.02379 | 7733 ft | 265 kts | 321° |
| 2026-05-04 19:29 | 39.61373 | -75.03776 | 7634 ft | 265 kts | 321° |
| 2026-05-04 19:29 | 39.62867 | -75.05173 | 7536 ft | 264 kts | 320° |
| 2026-05-04 19:29 | 39.64358 | -75.06567 | 7429 ft | 264 kts | 321° |
| 2026-05-04 19:30 | 39.65866 | -75.07942 | 7332 ft | 265 kts | 326° |
| 2026-05-04 19:30 | 39.67576 | -75.08870 | 7226 ft | 271 kts | 342° |
| 2026-05-04 19:30 | 39.69472 | -75.09119 | 7119 ft | 277 kts | 357° |
| 2026-05-04 19:30 | 39.71397 | -75.09034 | 7011 ft | 276 kts | 357° |
| 2026-05-04 19:31 | 39.73318 | -75.08953 | 6907 ft | 276 kts | 357° |
| 2026-05-04 19:31 | 39.75237 | -75.08880 | 6803 ft | 275 kts | 357° |
| 2026-05-04 19:31 | 39.77154 | -75.08760 | 6689 ft | 278 kts | 4° |
| 2026-05-04 19:31 | 39.78987 | -75.07910 | 6582 ft | 285 kts | 28° |
| 2026-05-04 19:32 | 39.80456 | -75.06158 | 6470 ft | 292 kts | 52° |
| 2026-05-04 19:32 | 39.81299 | -75.03792 | 6357 ft | 295 kts | 73° |
| 2026-05-04 19:32 | 39.81842 | -75.01221 | 6236 ft | 295 kts | 73° |
| 2026-05-04 19:32 | 39.82378 | -74.98654 | 6117 ft | 294 kts | 74° |
| 2026-05-04 19:33 | 39.83063 | -74.96162 | 5997 ft | 292 kts | 60° |
| 2026-05-04 19:33 | 39.84251 | -74.94049 | 5886 ft | 288 kts | 42° |
| 2026-05-04 19:33 | 39.85840 | -74.92509 | 5773 ft | 283 kts | 24° |
| 2026-05-04 19:33 | 39.87665 | -74.91601 | 5679 ft | 280 kts | 13° |
| 2026-05-04 19:34 | 39.89532 | -74.90867 | 5571 ft | 280 kts | 13° |
| 2026-05-04 19:34 | 39.91400 | -74.90125 | 5467 ft | 281 kts | 13° |
| 2026-05-04 19:34 | 39.93264 | -74.89381 | 5360 ft | 281 kts | 13° |
| 2026-05-04 19:34 | 39.95132 | -74.88635 | 5257 ft | 281 kts | 13° |
| 2026-05-04 19:35 | 39.96996 | -74.87890 | 5152 ft | 281 kts | 14° |
| 2026-05-04 19:35 | 39.98874 | -74.87145 | 5048 ft | 281 kts | 14° |
| 2026-05-04 19:35 | 40.00717 | -74.86413 | 4942 ft | 281 kts | 14° |
| 2026-05-04 19:35 | 40.02583 | -74.85669 | 4840 ft | 281 kts | 14° |
| 2026-05-04 19:36 | 40.04448 | -74.84922 | 4727 ft | 280 kts | 14° |
| 2026-05-04 19:36 | 40.06261 | -74.83988 | 4622 ft | 283 kts | 31° |
| 2026-05-04 19:36 | 40.07852 | -74.82460 | 4520 ft | 284 kts | 37° |
| 2026-05-04 19:36 | 40.09387 | -74.80846 | 4406 ft | 283 kts | 38° |
| 2026-05-04 19:37 | 40.10915 | -74.79214 | 4325 ft | 283 kts | 38° |
| 2026-05-04 19:37 | 40.12443 | -74.77585 | 4197 ft | 283 kts | 38° |
| 2026-05-04 19:37 | 40.13966 | -74.75965 | 4097 ft | 283 kts | 38° |
| 2026-05-04 19:37 | 40.15494 | -74.74345 | 3993 ft | 282 kts | 38° |
| 2026-05-04 19:38 | 40.17016 | -74.72725 | 3893 ft | 282 kts | 38° |
| 2026-05-04 19:38 | 40.18520 | -74.71124 | 3802 ft | 283 kts | 38° |
| 2026-05-04 19:38 | 40.20049 | -74.69496 | 3694 ft | 282 kts | 38° |
| 2026-05-04 19:38 | 40.21573 | -74.67873 | 3588 ft | 282 kts | 38° |
| 2026-05-04 19:39 | 40.23091 | -74.66246 | 3492 ft | 282 kts | 38° |
| 2026-05-04 19:39 | 40.24600 | -74.64615 | 3393 ft | 281 kts | 38° |
| 2026-05-04 19:39 | 40.26102 | -74.62989 | 3291 ft | 281 kts | 38° |
| 2026-05-04 19:39 | 40.27605 | -74.61363 | 3195 ft | 280 kts | 38° |
| 2026-05-04 19:40 | 40.29109 | -74.59751 | 3102 ft | 279 kts | 38° |
| 2026-05-04 19:40 | 40.30610 | -74.58143 | 2997 ft | 278 kts | 38° |
| 2026-05-04 19:40 | 40.32111 | -74.56537 | 2892 ft | 278 kts | 37° |
| 2026-05-04 19:40 | 40.33588 | -74.54949 | 2793 ft | 278 kts | 38° |
| 2026-05-04 19:41 | 40.35198 | -74.53512 | 2674 ft | 276 kts | 21° |
| 2026-05-04 19:41 | 40.37020 | -74.52963 | 2570 ft | 270 kts | 357° |
| 2026-05-04 19:41 | 40.38847 | -74.53400 | 2576 ft | 262 kts | 333° |
| 2026-05-04 19:41 | 40.40326 | -74.54654 | 2573 ft | 254 kts | 311° |
| 2026-05-04 19:42 | 40.41329 | -74.56526 | 2564 ft | 249 kts | 290° |
| 2026-05-04 19:42 | 40.41729 | -74.58697 | 2565 ft | 244 kts | 270° |
| 2026-05-04 19:42 | 40.41520 | -74.60838 | 2573 ft | 228 kts | 251° |
| 2026-05-04 19:42 | 40.40903 | -74.62667 | 2575 ft | 212 kts | 238° |
| 2026-05-04 19:43 | 40.40032 | -74.64156 | 2523 ft | 201 kts | 227° |
| 2026-05-04 19:43 | 40.39088 | -74.65454 | 2437 ft | 192 kts | 227° |
| 2026-05-04 19:43 | 40.38187 | -74.66695 | 2360 ft | 184 kts | 227° |
| 2026-05-04 19:43 | 40.37315 | -74.67899 | 2277 ft | 181 kts | 227° |
| 2026-05-04 19:44 | 40.36458 | -74.69083 | 2221 ft | 174 kts | 228° |
| 2026-05-04 19:44 | 40.35659 | -74.70185 | 2138 ft | 163 kts | 227° |
| 2026-05-04 19:44 | 40.34913 | -74.71213 | 2059 ft | 148 kts | 228° |
| 2026-05-04 19:44 | 40.34226 | -74.72158 | 1992 ft | 138 kts | 228° |
| 2026-05-04 19:45 | 40.33570 | -74.73063 | 1872 ft | 135 kts | 228° |
| 2026-05-04 19:45 | 40.32934 | -74.73940 | 1667 ft | 131 kts | 229° |
| 2026-05-04 19:45 | 40.32310 | -74.74801 | 1474 ft | 129 kts | 227° |
| 2026-05-04 19:45 | 40.31690 | -74.75656 | 1279 ft | 129 kts | 229° |
| 2026-05-04 19:46 | 40.31072 | -74.76508 | 1095 ft | 129 kts | 228° |
| 2026-05-04 19:46 | 40.30457 | -74.77357 | 911 ft | 129 kts | 228° |
| 2026-05-04 19:46 | 40.29838 | -74.78208 | 724 ft | 129 kts | 228° |
| 2026-05-04 19:46 | 40.29218 | -74.79066 | 550 ft | 128 kts | 229° |
| 2026-05-04 19:47 | 40.28606 | -74.79908 | 361 ft | 129 kts | 228° |
| 2026-05-04 19:47 | 40.28000 | -74.80760 | 213 ft | 128 kts | 226° |
| 2026-05-04 19:47 | 40.27498 | -74.81444 | 195 ft | 68 kts | 224° |
| 2026-05-04 19:47 | 40.27338 | -74.81659 | 181 ft | 7 kts | 235° |
| 2026-05-04 19:48 | 40.27345 | -74.81736 | 180 ft | 11 kts | 315° |
| 2026-05-04 19:48 | 40.27388 | -74.81748 | 181 ft | 0 kts | 5° |
| 2026-05-04 19:49 | 40.27390 | -74.81748 | 181 ft | 2 kts | 6° |
| 2026-05-04 19:49 | 40.27413 | -74.81744 | 182 ft | 6 kts | 8° |
| 2026-05-04 19:49 | 40.27447 | -74.81736 | 183 ft | 7 kts | 9° |
| 2026-05-04 19:50 | 40.27511 | -74.81723 | 192 ft | 7 kts | 9° |
| 2026-05-04 19:50 | 40.27546 | -74.81715 | 195 ft | 3 kts | 9° |
| 2026-05-04 19:50 | 40.27559 | -74.81712 | 195 ft | 5 kts | 9° |
| 2026-05-04 19:50 | 40.27581 | -74.81708 | 198 ft | 2 kts | 9° |
| 2026-05-04 19:51 | 40.27618 | -74.81699 | 203 ft | 4 kts | 9° |
| 2026-05-04 19:51 | 40.27651 | -74.81692 | 202 ft | 7 kts | 9° |
| 2026-05-04 19:51 | 40.27665 | -74.81698 | 205 ft | 0 kts | 298° |
| 2026-05-04 19:51 | 40.27669 | -74.81712 | 201 ft | 5 kts | 290° |
| 2026-05-04 19:52 | 40.27676 | -74.81742 | 208 ft | 0 kts | 288° |